Terminal Aerodrome Forecast
Issued by NWS

Home | Current Version | Previous Version | Text Only | Print | Product List | Glossary On
Versions: 1 2 3 4 5 6 7 8 9 10 11 12
989
FTUS45 KABQ 272338
TAFFMN
TAF
KFMN 272338Z 2800/2824 VRB06KT P6SM BKN120
     FM280300 07005KT P6SM BKN120
     FM281600 13007KT P6SM SCT120
     FM282000 16010G18KT P6SM BKN110=

USA.gov is the U.S. government's official web portal to all federal, state and local government web resources and services.